EWG3MJ EDDL-LEPA
Flight info
| Callsign | EWG3MJ |
|---|---|
| Flight time | N/A |
| Altitude | 24000 |
| Route | MODRU7Z MODRU Z283 LNO/N0456F350 Z283 SOPOK/N0456F370 Z283 RITAX UT27 ROUSY DCT GTQ DCT POGOL DCT LASAT DCT MOROK DCT GILIR DCT GEVEA DCT INCUS DCT BALSI DCT RETNO DCT TUPOX DCT MTG DCT DIVKO DCT VATIR N852 VERSO L129 LUNIK |
| Aircraft | A320/M-SDE3FGHIRWY/LB1 |
Departure
| Time | 2026-05-06 17:16 |
|---|---|
| Airport | Düsseldorf Airport (EDDL) |
Arrival
| Time | N/A |
|---|---|
| Airport | Palma de Mallorca Airport (LEPA) |
| Time | Latitude | Longitude | Altitude | Speed | Heading |
|---|---|---|---|---|---|
| 2026-05-06 16:38 | 51.27914 | 6.76265 | 129 ft | 0 kts | 61° |
| 2026-05-06 16:38 | 51.27906 | 6.76243 | 123 ft | 0 kts | 61° |
| 2026-05-06 16:49 | 51.27906 | 6.76242 | 128 ft | 0 kts | 61° |
| 2026-05-06 17:04 | 51.27897 | 6.76217 | 123 ft | 4 kts | 61° |
| 2026-05-06 17:05 | 51.27884 | 6.76180 | 124 ft | 4 kts | 61° |
| 2026-05-06 17:05 | 51.27871 | 6.76142 | 123 ft | 4 kts | 61° |
| 2026-05-06 17:05 | 51.27859 | 6.76107 | 124 ft | 2 kts | 61° |
| 2026-05-06 17:05 | 51.27847 | 6.76076 | 126 ft | 4 kts | 50° |
| 2026-05-06 17:06 | 51.27828 | 6.76049 | 125 ft | 4 kts | 18° |
| 2026-05-06 17:06 | 51.27805 | 6.76044 | 126 ft | 4 kts | 1° |
| 2026-05-06 17:06 | 51.27778 | 6.76044 | 126 ft | 4 kts | 1° |
| 2026-05-06 17:06 | 51.27766 | 6.76043 | 126 ft | 0 kts | 1° |
| 2026-05-06 17:09 | 51.27767 | 6.76043 | 129 ft | 0 kts | 1° |
| 2026-05-06 17:10 | 51.27770 | 6.76043 | 129 ft | 2 kts | 1° |
| 2026-05-06 17:10 | 51.27800 | 6.76044 | 128 ft | 7 kts | 1° |
| 2026-05-06 17:10 | 51.27846 | 6.76046 | 124 ft | 6 kts | 1° |
| 2026-05-06 17:11 | 51.27872 | 6.76046 | 126 ft | 2 kts | 1° |
| 2026-05-06 17:11 | 51.27896 | 6.76047 | 128 ft | 7 kts | 1° |
| 2026-05-06 17:11 | 51.27958 | 6.76048 | 128 ft | 9 kts | 360° |
| 2026-05-06 17:11 | 51.28022 | 6.76048 | 123 ft | 9 kts | 0° |
| 2026-05-06 17:12 | 51.28084 | 6.76038 | 128 ft | 8 kts | 336° |
| 2026-05-06 17:12 | 51.28100 | 6.75999 | 126 ft | 1 kts | 286° |
| 2026-05-06 17:12 | 51.28096 | 6.75962 | 128 ft | 10 kts | 243° |
| 2026-05-06 17:12 | 51.28037 | 6.75829 | 128 ft | 15 kts | 233° |
| 2026-05-06 17:13 | 51.27985 | 6.75717 | 127 ft | 11 kts | 233° |
| 2026-05-06 17:13 | 51.27947 | 6.75637 | 129 ft | 8 kts | 233° |
| 2026-05-06 17:13 | 51.27921 | 6.75582 | 127 ft | 5 kts | 233° |
| 2026-05-06 17:13 | 51.27904 | 6.75547 | 124 ft | 3 kts | 233° |
| 2026-05-06 17:14 | 51.27896 | 6.75530 | 128 ft | 1 kts | 233° |
| 2026-05-06 17:14 | 51.27871 | 6.75476 | 124 ft | 10 kts | 232° |
| 2026-05-06 17:14 | 51.27843 | 6.75394 | 126 ft | 8 kts | 265° |
| 2026-05-06 17:14 | 51.27864 | 6.75335 | 123 ft | 6 kts | 319° |
| 2026-05-06 17:15 | 51.27895 | 6.75303 | 125 ft | 6 kts | 333° |
| 2026-05-06 17:15 | 51.27955 | 6.75258 | 122 ft | 13 kts | 334° |
| 2026-05-06 17:15 | 51.28020 | 6.75327 | 125 ft | 14 kts | 51° |
| 2026-05-06 17:15 | 51.28043 | 6.75374 | 124 ft | 0 kts | 53° |
| 2026-05-06 17:16 | 51.28112 | 6.75518 | 123 ft | 49 kts | 52° |
| 2026-05-06 17:16 | 51.28462 | 6.76252 | 127 ft | 114 kts | 53° |
| 2026-05-06 17:16 | 51.29051 | 6.77484 | 171 ft | 160 kts | 49° |
| 2026-05-06 17:16 | 51.29702 | 6.78898 | 818 ft | 156 kts | 51° |
| 2026-05-06 17:17 | 51.30353 | 6.80277 | 1529 ft | 154 kts | 51° |
| 2026-05-06 17:17 | 51.31029 | 6.81715 | 1906 ft | 173 kts | 52° |
| 2026-05-06 17:17 | 51.31798 | 6.83322 | 2193 ft | 196 kts | 52° |
| 2026-05-06 17:17 | 51.32667 | 6.85142 | 2573 ft | 214 kts | 52° |
| 2026-05-06 17:18 | 51.33616 | 6.87150 | 2928 ft | 239 kts | 53° |
| 2026-05-06 17:18 | 51.34681 | 6.89330 | 3513 ft | 255 kts | 43° |
| 2026-05-06 17:18 | 51.36227 | 6.90744 | 4323 ft | 263 kts | 13° |
| 2026-05-06 17:18 | 51.38070 | 6.91096 | 4821 ft | 269 kts | 6° |
| 2026-05-06 17:19 | 51.39916 | 6.91503 | 4863 ft | 268 kts | 9° |
| 2026-05-06 17:19 | 51.41748 | 6.92025 | 4870 ft | 267 kts | 11° |
| 2026-05-06 17:19 | 51.43570 | 6.92576 | 4875 ft | 266 kts | 11° |
| 2026-05-06 17:19 | 51.45408 | 6.93127 | 5198 ft | 270 kts | 10° |
| 2026-05-06 17:20 | 51.47278 | 6.93306 | 6158 ft | 272 kts | 352° |
| 2026-05-06 17:20 | 51.49070 | 6.92346 | 7032 ft | 276 kts | 329° |
| 2026-05-06 17:20 | 51.49516 | 6.91877 | 7257 ft | 277 kts | 323° |
| 2026-05-06 17:21 | 51.50699 | 6.89857 | 8025 ft | 281 kts | 302° |
| 2026-05-06 17:21 | 51.51501 | 6.86978 | 8892 ft | 285 kts | 291° |
| 2026-05-06 17:21 | 51.52203 | 6.83983 | 9748 ft | 289 kts | 291° |
| 2026-05-06 17:21 | 51.52931 | 6.80892 | 10254 ft | 306 kts | 291° |
| 2026-05-06 17:22 | 51.53718 | 6.77582 | 10512 ft | 329 kts | 291° |
| 2026-05-06 17:22 | 51.54543 | 6.74064 | 10715 ft | 353 kts | 289° |
| 2026-05-06 17:22 | 51.55053 | 6.70136 | 11195 ft | 366 kts | 277° |
| 2026-05-06 17:22 | 51.55036 | 6.66022 | 11890 ft | 372 kts | 264° |
| 2026-05-06 17:23 | 51.54460 | 6.61954 | 12626 ft | 377 kts | 252° |
| 2026-05-06 17:23 | 51.53355 | 6.58103 | 13343 ft | 382 kts | 244° |
| 2026-05-06 17:23 | 51.52127 | 6.54296 | 14023 ft | 386 kts | 243° |
| 2026-05-06 17:23 | 51.50882 | 6.50458 | 14721 ft | 388 kts | 243° |
| 2026-05-06 17:24 | 51.49634 | 6.46625 | 15430 ft | 389 kts | 243° |
| 2026-05-06 17:24 | 51.48393 | 6.42814 | 16138 ft | 390 kts | 243° |
| 2026-05-06 17:24 | 51.46959 | 6.39112 | 16826 ft | 393 kts | 232° |
| 2026-05-06 17:24 | 51.45095 | 6.35911 | 17512 ft | 395 kts | 221° |
| 2026-05-06 17:25 | 51.42855 | 6.33359 | 18209 ft | 397 kts | 209° |
| 2026-05-06 17:25 | 51.40325 | 6.31553 | 18821 ft | 399 kts | 201° |
| 2026-05-06 17:25 | 51.37703 | 6.30020 | 19339 ft | 403 kts | 200° |
| 2026-05-06 17:25 | 51.35060 | 6.28471 | 19836 ft | 407 kts | 200° |
| 2026-05-06 17:26 | 51.32396 | 6.26907 | 20386 ft | 409 kts | 201° |
| 2026-05-06 17:26 | 51.29721 | 6.25333 | 20908 ft | 411 kts | 200° |
| 2026-05-06 17:26 | 51.27029 | 6.23750 | 21387 ft | 414 kts | 200° |
| 2026-05-06 17:26 | 51.24309 | 6.22153 | 21860 ft | 417 kts | 201° |
| 2026-05-06 17:27 | 51.21579 | 6.20554 | 22357 ft | 419 kts | 201° |
| 2026-05-06 17:27 | 51.18863 | 6.18965 | 22809 ft | 422 kts | 200° |
| 2026-05-06 17:27 | 51.16095 | 6.17350 | 23261 ft | 425 kts | 200° |
| 2026-05-06 17:27 | 51.13309 | 6.15728 | 23666 ft | 428 kts | 200° |
| 2026-05-06 17:28 | 51.10508 | 6.14096 | 24086 ft | 429 kts | 200° |
| 2026-05-06 17:28 | 51.07699 | 6.12464 | 24461 ft | 431 kts | 200° |
| 2026-05-06 17:28 | 51.04876 | 6.10830 | 24842 ft | 433 kts | 200° |
| 2026-05-06 17:28 | 51.02060 | 6.09076 | 25206 ft | 435 kts | 205° |
| 2026-05-06 17:29 | 50.99418 | 6.06721 | 25575 ft | 436 kts | 212° |
| 2026-05-06 17:29 | 50.96848 | 6.04157 | 25935 ft | 438 kts | 212° |
| 2026-05-06 17:29 | 50.94299 | 6.01633 | 26285 ft | 439 kts | 211° |
| 2026-05-06 17:29 | 50.91663 | 5.99176 | 26629 ft | 440 kts | 209° |
| 2026-05-06 17:30 | 50.88971 | 5.96841 | 26968 ft | 441 kts | 208° |
| 2026-05-06 17:30 | 50.86257 | 5.94589 | 27286 ft | 442 kts | 207° |
| 2026-05-06 17:30 | 50.83514 | 5.92355 | 27596 ft | 443 kts | 205° |
| 2026-05-06 17:30 | 50.80757 | 5.90161 | 27932 ft | 443 kts | 207° |
| 2026-05-06 17:31 | 50.78034 | 5.87892 | 28368 ft | 441 kts | 208° |
| 2026-05-06 17:31 | 50.75346 | 5.85573 | 28788 ft | 439 kts | 209° |
| 2026-05-06 17:31 | 50.72717 | 5.83265 | 29201 ft | 438 kts | 209° |
| 2026-05-06 17:31 | 50.70064 | 5.80929 | 29599 ft | 437 kts | 208° |
| 2026-05-06 17:32 | 50.67411 | 5.78606 | 30017 ft | 435 kts | 208° |
| 2026-05-06 17:32 | 50.64761 | 5.76305 | 30374 ft | 434 kts | 208° |
| 2026-05-06 17:32 | 50.62084 | 5.74152 | 30726 ft | 432 kts | 202° |
| 2026-05-06 17:32 | 50.59233 | 5.72680 | 31087 ft | 431 kts | 193° |
| 2026-05-06 17:33 | 50.56270 | 5.71983 | 31442 ft | 430 kts | 184° |
| 2026-05-06 17:33 | 50.53286 | 5.72065 | 31794 ft | 431 kts | 175° |
| 2026-05-06 17:33 | 50.50345 | 5.72633 | 32131 ft | 430 kts | 174° |
| 2026-05-06 17:33 | 50.47377 | 5.73207 | 32469 ft | 430 kts | 175° |
| 2026-05-06 17:34 | 50.44408 | 5.73772 | 32805 ft | 429 kts | 175° |
| 2026-05-06 17:34 | 50.41442 | 5.74334 | 33129 ft | 429 kts | 175° |
| 2026-05-06 17:34 | 50.38488 | 5.74889 | 33457 ft | 428 kts | 175° |
| 2026-05-06 17:34 | 50.35532 | 5.75447 | 33795 ft | 427 kts | 175° |
| 2026-05-06 17:35 | 50.32585 | 5.76005 | 34100 ft | 427 kts | 175° |
| 2026-05-06 17:35 | 50.29639 | 5.76563 | 34359 ft | 427 kts | 175° |
| 2026-05-06 17:35 | 50.26687 | 5.77123 | 34596 ft | 427 kts | 175° |
| 2026-05-06 17:36 | 50.20830 | 5.78239 | 35118 ft | 427 kts | 175° |
| 2026-05-06 17:36 | 50.17876 | 5.78800 | 35357 ft | 428 kts | 175° |
| 2026-05-06 17:36 | 50.14926 | 5.79357 | 35572 ft | 428 kts | 175° |
| 2026-05-06 17:36 | 50.11962 | 5.79914 | 35800 ft | 429 kts | 175° |
| 2026-05-06 17:37 | 50.08997 | 5.80487 | 36010 ft | 430 kts | 172° |
| 2026-05-06 17:37 | 50.06082 | 5.81563 | 36209 ft | 433 kts | 164° |
| 2026-05-06 17:37 | 50.03221 | 5.83057 | 36421 ft | 433 kts | 163° |
| 2026-05-06 17:37 | 50.00360 | 5.84552 | 36646 ft | 433 kts | 163° |
| 2026-05-06 17:38 | 49.97507 | 5.86035 | 36825 ft | 434 kts | 163° |
| 2026-05-06 17:38 | 49.94625 | 5.87520 | 36867 ft | 437 kts | 164° |
| 2026-05-06 17:38 | 49.88884 | 5.90453 | 36863 ft | 438 kts | 164° |
| 2026-05-06 17:39 | 49.83103 | 5.93422 | 36863 ft | 438 kts | 164° |
| 2026-05-06 17:39 | 49.77322 | 5.96389 | 36864 ft | 438 kts | 163° |
| 2026-05-06 17:40 | 49.71535 | 5.99348 | 36863 ft | 438 kts | 164° |
| 2026-05-06 17:40 | 49.65750 | 6.02303 | 36866 ft | 438 kts | 163° |
| 2026-05-06 17:41 | 49.59999 | 6.05236 | 36874 ft | 438 kts | 163° |
| 2026-05-06 17:41 | 49.54208 | 6.08184 | 36868 ft | 439 kts | 163° |
| 2026-05-06 17:42 | 49.48462 | 6.11392 | 36867 ft | 441 kts | 155° |
| 2026-05-06 17:42 | 49.43396 | 6.16762 | 36864 ft | 445 kts | 143° |
| 2026-05-06 17:43 | 49.38618 | 6.22710 | 36861 ft | 446 kts | 143° |
| 2026-05-06 17:43 | 49.33787 | 6.28681 | 36847 ft | 446 kts | 144° |
| 2026-05-06 17:44 | 49.28953 | 6.34617 | 36854 ft | 446 kts | 144° |
| 2026-05-06 17:44 | 49.24107 | 6.40568 | 36863 ft | 446 kts | 144° |
| 2026-05-06 17:45 | 49.19265 | 6.46515 | 36871 ft | 446 kts | 144° |
| 2026-05-06 17:45 | 49.14449 | 6.52409 | 36874 ft | 447 kts | 144° |
| 2026-05-06 17:46 | 49.09597 | 6.58324 | 36874 ft | 447 kts | 144° |
| 2026-05-06 17:46 | 49.04734 | 6.64228 | 36861 ft | 446 kts | 144° |
| 2026-05-06 17:47 | 48.99554 | 6.69268 | 36871 ft | 440 kts | 160° |
| 2026-05-06 17:47 | 48.93701 | 6.71343 | 36868 ft | 434 kts | 179° |
| 2026-05-06 17:48 | 48.87671 | 6.71182 | 36903 ft | 435 kts | 183° |
| 2026-05-06 17:48 | 48.81617 | 6.70941 | 36859 ft | 436 kts | 183° |
| 2026-05-06 17:49 | 48.75542 | 6.70715 | 36857 ft | 437 kts | 183° |
| 2026-05-06 17:49 | 48.69463 | 6.70491 | 36858 ft | 437 kts | 183° |
| 2026-05-06 17:50 | 48.63415 | 6.70251 | 36862 ft | 438 kts | 183° |
| 2026-05-06 17:50 | 48.57329 | 6.70012 | 36863 ft | 438 kts | 183° |
| 2026-05-06 17:51 | 48.51232 | 6.69777 | 36866 ft | 438 kts | 183° |
| 2026-05-06 17:51 | 48.45166 | 6.69549 | 36872 ft | 439 kts | 183° |
| 2026-05-06 17:52 | 48.39068 | 6.69317 | 36877 ft | 439 kts | 183° |
| 2026-05-06 17:52 | 48.32967 | 6.69078 | 36883 ft | 439 kts | 183° |
| 2026-05-06 17:53 | 48.26865 | 6.68832 | 36888 ft | 438 kts | 183° |
| 2026-05-06 17:53 | 48.20804 | 6.68604 | 36887 ft | 438 kts | 183° |
| 2026-05-06 17:54 | 48.14710 | 6.68372 | 36892 ft | 438 kts | 183° |
| 2026-05-06 17:54 | 48.08612 | 6.68141 | 36896 ft | 438 kts | 183° |
| 2026-05-06 17:55 | 48.02520 | 6.67904 | 36893 ft | 438 kts | 183° |
| 2026-05-06 17:55 | 47.96467 | 6.67669 | 36896 ft | 438 kts | 183° |
| 2026-05-06 17:56 | 47.90374 | 6.67448 | 36899 ft | 438 kts | 183° |
| 2026-05-06 17:56 | 47.84280 | 6.67223 | 36899 ft | 438 kts | 183° |
| 2026-05-06 17:57 | 47.78183 | 6.67005 | 36894 ft | 438 kts | 183° |
| 2026-05-06 17:57 | 47.72125 | 6.66782 | 36898 ft | 438 kts | 183° |
| 2026-05-06 17:58 | 47.66032 | 6.66548 | 36899 ft | 438 kts | 183° |
| 2026-05-06 17:58 | 47.59938 | 6.66314 | 36899 ft | 438 kts | 183° |
| 2026-05-06 17:59 | 47.53844 | 6.66081 | 36897 ft | 438 kts | 183° |
| 2026-05-06 17:59 | 47.47752 | 6.65855 | 36899 ft | 438 kts | 183° |
| 2026-05-06 18:00 | 47.41767 | 6.64956 | 36896 ft | 434 kts | 197° |
| 2026-05-06 18:00 | 47.36334 | 6.61241 | 36897 ft | 431 kts | 216° |
| 2026-05-06 18:01 | 47.31735 | 6.55579 | 36911 ft | 431 kts | 220° |
| 2026-05-06 18:01 | 47.27171 | 6.49843 | 36911 ft | 431 kts | 220° |
| 2026-05-06 18:02 | 47.22595 | 6.44129 | 36913 ft | 432 kts | 220° |
| 2026-05-06 18:02 | 47.18044 | 6.38469 | 36913 ft | 432 kts | 220° |
| 2026-05-06 18:03 | 47.13458 | 6.32774 | 36920 ft | 431 kts | 220° |
| 2026-05-06 18:03 | 47.08804 | 6.27215 | 36924 ft | 431 kts | 213° |
| 2026-05-06 18:04 | 47.03318 | 6.23742 | 36927 ft | 433 kts | 194° |
| 2026-05-06 18:04 | 46.97354 | 6.22716 | 36919 ft | 435 kts | 187° |
| 2026-05-06 18:05 | 46.91325 | 6.21921 | 36921 ft | 435 kts | 187° |
| 2026-05-06 18:05 | 46.85288 | 6.21115 | 36923 ft | 436 kts | 187° |
| 2026-05-06 18:06 | 46.79252 | 6.20314 | 36914 ft | 436 kts | 187° |
| 2026-05-06 18:06 | 46.73252 | 6.19512 | 36919 ft | 436 kts | 187° |
| 2026-05-06 18:07 | 46.67220 | 6.18718 | 36928 ft | 436 kts | 187° |
| 2026-05-06 18:07 | 46.61182 | 6.17920 | 36932 ft | 436 kts | 187° |
| 2026-05-06 18:08 | 46.55147 | 6.17117 | 36929 ft | 435 kts | 187° |
| 2026-05-06 18:08 | 46.49114 | 6.16324 | 36932 ft | 436 kts | 187° |
| 2026-05-06 18:09 | 46.43112 | 6.15533 | 36929 ft | 435 kts | 187° |
| 2026-05-06 18:09 | 46.37079 | 6.14744 | 36920 ft | 435 kts | 188° |
| 2026-05-06 18:10 | 46.31051 | 6.13956 | 36918 ft | 435 kts | 187° |
| 2026-05-06 18:10 | 46.25028 | 6.13170 | 36925 ft | 434 kts | 188° |
| 2026-05-06 18:11 | 46.19079 | 6.12024 | 36920 ft | 433 kts | 191° |
| 2026-05-06 18:11 | 46.13145 | 6.10583 | 36919 ft | 433 kts | 192° |
| 2026-05-06 18:12 | 46.07201 | 6.09162 | 36918 ft | 433 kts | 191° |
| 2026-05-06 18:12 | 46.01245 | 6.07829 | 36917 ft | 433 kts | 191° |
| 2026-05-06 18:13 | 45.95333 | 6.06545 | 36915 ft | 432 kts | 191° |
| 2026-05-06 18:13 | 45.89390 | 6.05243 | 36920 ft | 432 kts | 191° |
| 2026-05-06 18:14 | 45.83454 | 6.03933 | 36922 ft | 431 kts | 191° |
| 2026-05-06 18:14 | 45.77523 | 6.02618 | 36915 ft | 431 kts | 192° |
| 2026-05-06 18:15 | 45.71602 | 6.01304 | 36922 ft | 431 kts | 192° |
| 2026-05-06 18:15 | 45.65717 | 6.00011 | 36917 ft | 431 kts | 191° |
| 2026-05-06 18:16 | 45.59788 | 5.98714 | 36623 ft | 434 kts | 187° |
| 2026-05-06 18:16 | 45.56844 | 5.98110 | 36831 ft | 424 kts | 186° |
| 2026-05-06 18:16 | 45.53902 | 5.97549 | 36892 ft | 427 kts | 186° |
| 2026-05-06 18:17 | 45.47989 | 5.96402 | 36981 ft | 430 kts | 186° |
| 2026-05-06 18:17 | 45.45028 | 5.95759 | 36851 ft | 429 kts | 189° |
| 2026-05-06 18:17 | 45.42156 | 5.94884 | 36939 ft | 428 kts | 199° |
| 2026-05-06 18:18 | 45.36412 | 5.92726 | 36925 ft | 427 kts | 198° |
| 2026-05-06 18:18 | 45.30658 | 5.90679 | 36931 ft | 426 kts | 196° |
| 2026-05-06 18:19 | 45.24856 | 5.88861 | 36937 ft | 427 kts | 195° |
| 2026-05-06 18:19 | 45.19036 | 5.87111 | 36937 ft | 427 kts | 195° |
| 2026-05-06 18:20 | 45.13271 | 5.85353 | 36937 ft | 427 kts | 195° |
| 2026-05-06 18:20 | 45.07472 | 5.83558 | 36937 ft | 427 kts | 195° |
| 2026-05-06 18:21 | 45.01673 | 5.81766 | 36933 ft | 425 kts | 196° |
| 2026-05-06 18:21 | 44.95894 | 5.79973 | 36941 ft | 425 kts | 196° |
| 2026-05-06 18:22 | 44.90155 | 5.78209 | 36943 ft | 424 kts | 196° |
| 2026-05-06 18:22 | 44.84385 | 5.76448 | 36923 ft | 424 kts | 196° |
| 2026-05-06 18:23 | 44.78621 | 5.74698 | 36934 ft | 423 kts | 196° |
| 2026-05-06 18:23 | 44.72874 | 5.72935 | 36939 ft | 423 kts | 196° |
| 2026-05-06 18:24 | 44.67160 | 5.71186 | 36939 ft | 423 kts | 196° |
| 2026-05-06 18:24 | 44.61402 | 5.69435 | 36937 ft | 424 kts | 196° |
| 2026-05-06 18:25 | 44.55635 | 5.67687 | 36927 ft | 424 kts | 196° |
| 2026-05-06 18:25 | 44.49864 | 5.65937 | 36926 ft | 424 kts | 196° |
| 2026-05-06 18:26 | 44.44126 | 5.64197 | 36911 ft | 424 kts | 196° |
| 2026-05-06 18:26 | 44.38366 | 5.62420 | 36921 ft | 423 kts | 200° |
| 2026-05-06 18:27 | 44.32887 | 5.59556 | 36924 ft | 420 kts | 205° |
| 2026-05-06 18:27 | 44.27449 | 5.56563 | 36903 ft | 420 kts | 205° |
| 2026-05-06 18:28 | 44.22048 | 5.53615 | 36924 ft | 419 kts | 205° |
| 2026-05-06 18:28 | 44.16614 | 5.50663 | 36924 ft | 419 kts | 205° |
| 2026-05-06 18:29 | 44.11189 | 5.47701 | 36932 ft | 419 kts | 205° |
| 2026-05-06 18:29 | 44.05776 | 5.44747 | 36925 ft | 418 kts | 205° |
| 2026-05-06 18:30 | 44.00400 | 5.41825 | 36932 ft | 417 kts | 205° |
| 2026-05-06 18:30 | 43.94993 | 5.38902 | 36934 ft | 417 kts | 205° |
| 2026-05-06 18:31 | 43.89588 | 5.35991 | 36909 ft | 416 kts | 205° |
| 2026-05-06 18:31 | 43.84193 | 5.33084 | 36947 ft | 416 kts | 205° |
| 2026-05-06 18:32 | 43.78803 | 5.30169 | 36934 ft | 417 kts | 205° |
| 2026-05-06 18:32 | 43.73431 | 5.27277 | 36926 ft | 417 kts | 205° |
| 2026-05-06 18:33 | 43.68024 | 5.24376 | 36907 ft | 417 kts | 205° |
| 2026-05-06 18:33 | 43.62614 | 5.21483 | 36913 ft | 417 kts | 205° |
| 2026-05-06 18:34 | 43.57204 | 5.18592 | 36920 ft | 417 kts | 205° |
| 2026-05-06 18:34 | 43.51837 | 5.15715 | 36922 ft | 417 kts | 205° |
| 2026-05-06 18:35 | 43.46424 | 5.12826 | 36916 ft | 417 kts | 205° |
| 2026-05-06 18:35 | 43.41014 | 5.09955 | 36920 ft | 417 kts | 205° |
| 2026-05-06 18:36 | 43.35981 | 5.06183 | 36947 ft | 410 kts | 217° |
| 2026-05-06 18:36 | 43.31307 | 5.01773 | 36914 ft | 411 kts | 217° |
| 2026-05-06 18:37 | 43.27360 | 4.98061 | 36925 ft | 411 kts | 217° |
| 2026-05-06 18:37 | 43.21880 | 4.92905 | 36942 ft | 411 kts | 217° |
| 2026-05-06 18:38 | 43.17186 | 4.88501 | 36938 ft | 411 kts | 217° |
| 2026-05-06 18:38 | 43.12489 | 4.84108 | 36917 ft | 412 kts | 217° |
| 2026-05-06 18:39 | 43.07754 | 4.79693 | 36940 ft | 412 kts | 217° |
| 2026-05-06 18:40 | 43.00334 | 4.73696 | 36956 ft | 414 kts | 213° |